Time;durP1;ratioP1;P1;durP2;ratioP2;P2;SDS_P1;SDS_P2;PMS_P1;PMS_P2;Temp;Humidity;BMP_temperature;BMP_pressure;BME280_temperature;BME280_humidity;BME280_pressure;Samples;Min_cycle;Max_cycle;Signal;HPM_P1;HPM_P2
2021/03/23 00:02:12;;;;;;;13.70;12.23;;;9.00;80.80;;;;;;5096774;28;20460;-71
2021/03/23 00:04:39;;;;;;;14.67;11.60;;;9.00;81.00;;;;;;5096789;28;20444;-71
2021/03/23 00:07:05;;;;;;;14.67;13.20;;;8.90;81.10;;;;;;5096488;28;20539;-70
2021/03/23 00:09:31;;;;;;;13.30;11.40;;;8.90;81.10;;;;;;5096703;28;20444;-71
2021/03/23 00:11:57;;;;;;;15.20;11.73;;;8.90;81.20;;;;;;5096511;28;20505;-71
2021/03/23 00:14:24;;;;;;;12.47;11.17;;;8.90;81.00;;;;;;5096654;28;20451;-70
2021/03/23 00:16:51;;;;;;;12.97;11.67;;;8.90;80.90;;;;;;5096599;28;20455;-70
2021/03/23 00:19:17;;;;;;;12.53;11.33;;;8.80;80.90;;;;;;5096525;28;20447;-70
2021/03/23 00:21:43;;;;;;;13.67;10.70;;;8.70;80.90;;;;;;5096441;28;20468;-71
2021/03/23 00:24:10;;;;;;;14.63;13.13;;;8.70;80.90;;;;;;5096077;28;20964;-70
2021/03/23 00:26:36;;;;;;;16.00;11.20;;;8.60;80.90;;;;;;5096365;28;20447;-71
2021/03/23 00:29:03;;;;;;;16.67;11.27;;;8.60;81.10;;;;;;5096364;28;20474;-71
2021/03/23 00:31:31;;;;;;;14.60;13.10;;;8.60;81.00;;;;;;5096164;28;20574;-70
2021/03/23 00:33:59;;;;;;;12.93;10.97;;;8.50;80.80;;;;;;5096253;28;20451;-71
2021/03/23 00:36:27;;;;;;;14.80;12.00;;;8.40;80.80;;;;;;5096229;28;20447;-71
2021/03/23 00:38:55;;;;;;;13.00;11.60;;;8.30;81.00;;;;;;5095771;28;20446;-71
2021/03/23 00:41:22;;;;;;;12.50;10.70;;;8.30;81.30;;;;;;5095789;28;20455;-71
2021/03/23 00:43:49;;;;;;;13.03;11.63;;;8.20;81.30;;;;;;5095760;28;20946;-71
2021/03/23 00:46:15;;;;;;;14.07;12.57;;;8.20;81.20;;;;;;5095982;28;20440;-71
2021/03/23 00:48:41;;;;;;;16.27;13.30;;;8.20;81.30;;;;;;5096014;28;20440;-71
2021/03/23 00:51:09;;;;;;;13.23;11.50;;;8.10;81.00;;;;;;5095782;28;20537;-71
2021/03/23 00:53:35;;;;;;;12.83;11.33;;;8.10;80.90;;;;;;5095844;28;20448;-70
2021/03/23 00:56:02;;;;;;;15.57;13.03;;;8.10;80.70;;;;;;5095928;28;20434;-70
2021/03/23 00:58:28;;;;;;;19.40;14.27;;;8.00;80.60;;;;;;5095839;28;20448;-71
2021/03/23 01:00:54;;;;;;;14.10;11.50;;;8.00;80.60;;;;;;5095658;28;20501;-71
2021/03/23 01:03:20;;;;;;;17.67;13.90;;;8.00;80.70;;;;;;5095875;28;20443;-71
2021/03/23 01:05:49;;;;;;;15.73;12.60;;;7.80;80.50;;;;;;5095418;28;20487;-71
2021/03/23 01:08:17;;;;;;;15.10;12.93;;;7.80;80.90;;;;;;5095614;28;20451;-71
2021/03/23 01:10:43;;;;;;;15.10;13.13;;;7.80;81.00;;;;;;5095651;28;20489;-71
2021/03/23 01:13:10;;;;;;;15.60;12.63;;;7.70;81.00;;;;;;5095524;28;20528;-71
2021/03/23 01:15:36;;;;;;;16.20;13.63;;;7.70;81.20;;;;;;5095281;28;20493;-71
2021/03/23 01:18:03;;;;;;;14.40;12.63;;;7.70;81.30;;;;;;5095603;28;20447;-70
2021/03/23 01:20:31;;;;;;;16.87;13.93;;;7.70;81.60;;;;;;5095348;28;20450;-70
2021/03/23 01:22:58;;;;;;;17.30;15.00;;;7.70;81.70;;;;;;5095246;28;20459;-70
2021/03/23 01:25:26;;;;;;;20.23;15.70;;;7.70;81.70;;;;;;5095413;28;20520;-70
2021/03/23 01:27:52;;;;;;;18.47;15.93;;;7.70;81.80;;;;;;5095343;28;20457;-70
2021/03/23 01:30:22;;;;;;;18.40;13.03;;;7.70;82.00;;;;;;5095329;28;20435;-70
2021/03/23 01:32:49;;;;;;;17.50;14.50;;;7.70;82.40;;;;;;5095149;28;20896;-70
2021/03/23 01:35:16;;;;;;;22.10;14.70;;;7.70;83.00;;;;;;5095116;28;20444;-70
2021/03/23 01:37:42;;;;;;;18.70;15.47;;;7.70;83.00;;;;;;5095209;28;20450;-70
2021/03/23 01:40:11;;;;;;;22.07;17.57;;;7.80;83.10;;;;;;5095153;28;20447;-70
2021/03/23 01:42:44;;;;;;;22.20;18.20;;;7.80;83.00;;;;;;5094786;28;20824;-71
2021/03/23 01:45:18;;;;;;;22.07;16.87;;;7.70;82.80;;;;;;5095060;28;20460;-71
2021/03/23 01:47:45;;;;;;;23.93;17.40;;;7.70;83.20;;;;;;5094781;28;20790;-71
2021/03/23 01:50:12;;;;;;;18.30;15.77;;;7.70;83.70;;;;;;5094418;28;20435;-71
2021/03/23 01:52:40;;;;;;;22.07;16.50;;;7.60;83.50;;;;;;5094136;28;20475;-71
2021/03/23 01:55:09;;;;;;;19.70;15.30;;;7.70;83.90;;;;;;5094696;28;20444;-70
2021/03/23 01:57:37;;;;;;;24.13;17.33;;;7.70;83.90;;;;;;5094693;28;20501;-70
2021/03/23 02:00:07;;;;;;;20.90;15.53;;;7.70;84.30;;;;;;5094393;28;20804;-71
2021/03/23 02:02:34;;;;;;;21.80;18.50;;;7.80;84.30;;;;;;5095461;28;20794;-71
2021/03/23 02:05:00;;;;;;;23.70;17.40;;;7.80;84.00;;;;;;5094553;28;20452;-71
2021/03/23 02:07:26;;;;;;;23.03;18.53;;;7.90;83.90;;;;;;5094625;28;20443;-71
2021/03/23 02:09:54;;;;;;;35.93;21.87;;;7.90;83.90;;;;;;5094744;28;20436;-71
2021/03/23 02:12:25;;;;;;;30.57;21.80;;;7.90;83.80;;;;;;5094254;28;20496;-71
2021/03/23 02:14:51;;;;;;;29.03;22.30;;;7.80;83.90;;;;;;5094243;28;20967;-71
2021/03/23 02:17:22;;;;;;;27.97;22.33;;;7.80;84.30;;;;;;5094417;28;20444;-71
2021/03/23 02:19:49;;;;;;;27.67;22.13;;;7.80;84.40;;;;;;5094379;28;20436;-70
2021/03/23 02:22:24;;;;;;;27.17;21.00;;;7.80;84.20;;;;;;5094299;28;20463;-71
2021/03/23 02:24:51;;;;;;;27.00;20.83;;;7.90;84.70;;;;;;5094380;28;20435;-71
2021/03/23 02:27:17;;;;;;;29.93;23.03;;;7.90;84.80;;;;;;5094179;28;20444;-71
2021/03/23 02:29:44;;;;;;;31.00;24.77;;;7.90;84.70;;;;;;5094735;28;20451;-71
2021/03/23 02:32:10;;;;;;;30.20;21.70;;;7.90;84.40;;;;;;5093772;28;20986;-70
2021/03/23 02:34:37;;;;;;;30.23;22.00;;;7.90;83.90;;;;;;5094453;28;20440;-70
2021/03/23 02:37:04;;;;;;;31.20;23.43;;;7.90;83.90;;;;;;5094142;28;20500;-70
2021/03/23 02:39:33;;;;;;;31.53;22.80;;;8.00;84.20;;;;;;5094143;28;20448;-70
2021/03/23 02:42:00;;;;;;;29.07;20.60;;;8.00;84.10;;;;;;5094128;28;20470;-70
2021/03/23 02:44:27;;;;;;;26.90;20.43;;;8.10;84.10;;;;;;5094168;28;20452;-70
2021/03/23 02:46:53;;;;;;;23.23;18.73;;;8.10;84.10;;;;;;5094257;28;20505;-71
2021/03/23 02:49:20;;;;;;;25.53;21.10;;;8.10;83.80;;;;;;5094439;28;20446;-71
2021/03/23 02:51:48;;;;;;;30.03;23.50;;;8.10;83.30;;;;;;5094230;28;20479;-71
2021/03/23 02:54:15;;;;;;;29.77;23.30;;;8.20;83.20;;;;;;5094300;28;20508;-70
2021/03/23 02:56:42;;;;;;;27.17;22.07;;;8.20;82.80;;;;;;5094374;28;20450;-71
2021/03/23 02:59:08;;;;;;;32.83;22.67;;;8.20;82.70;;;;;;5094298;28;20451;-71
2021/03/23 03:01:34;;;;;;;31.67;23.37;;;8.30;82.50;;;;;;5094161;28;20471;-71
2021/03/23 03:04:02;;;;;;;26.20;21.73;;;8.20;82.80;;;;;;5094249;28;20959;-71
2021/03/23 03:06:28;;;;;;;32.50;23.17;;;8.30;83.00;;;;;;5093599;28;20969;-71
2021/03/23 03:08:55;;;;;;;29.57;23.40;;;8.30;83.10;;;;;;5094084;28;20461;-71
2021/03/23 03:11:21;;;;;;;27.77;21.83;;;8.30;83.10;;;;;;5093920;28;20483;-71
2021/03/23 03:13:48;;;;;;;28.03;21.00;;;8.30;83.30;;;;;;5094273;28;20447;-71
2021/03/23 03:16:14;;;;;;;27.67;22.27;;;8.20;83.40;;;;;;5094107;28;20450;-71
2021/03/23 03:18:40;;;;;;;28.73;20.97;;;8.20;83.70;;;;;;5093931;28;20440;-71
2021/03/23 03:21:06;;;;;;;26.80;21.53;;;8.20;83.90;;;;;;5093911;28;20536;-71
2021/03/23 03:23:33;;;;;;;33.00;24.47;;;8.30;83.80;;;;;;5093995;28;20522;-71
2021/03/23 03:25:59;;;;;;;27.73;21.30;;;8.30;83.60;;;;;;5094232;28;20447;-71
2021/03/23 03:28:25;;;;;;;30.70;24.07;;;8.30;83.70;;;;;;5094091;28;20443;-71
2021/03/23 03:30:52;;;;;;;26.77;21.33;;;8.30;83.20;;;;;;5094241;28;20444;-71
2021/03/23 03:33:21;;;;;;;32.43;23.07;;;8.30;82.90;;;;;;5093655;28;20864;-71
2021/03/23 03:35:48;;;;;;;41.00;26.60;;;8.30;82.40;;;;;;5093717;28;20945;-71
2021/03/23 03:38:15;;;;;;;34.77;23.83;;;8.30;82.30;;;;;;5093902;28;20466;-71
2021/03/23 03:40:44;;;;;;;40.23;25.77;;;8.30;81.90;;;;;;5093875;28;20458;-71
2021/03/23 03:43:11;;;;;;;31.83;24.17;;;8.30;81.80;;;;;;5093963;28;20466;-71
2021/03/23 03:45:38;;;;;;;36.53;25.53;;;8.30;81.60;;;;;;5094065;28;20449;-71
2021/03/23 03:48:06;;;;;;;28.23;21.73;;;8.30;81.80;;;;;;5093896;28;20443;-71
2021/03/23 03:50:32;;;;;;;31.77;23.00;;;8.30;81.60;;;;;;5093772;28;20444;-71
2021/03/23 03:52:59;;;;;;;39.50;24.03;;;8.30;81.60;;;;;;5093287;28;20486;-70
2021/03/23 03:55:29;;;;;;;35.77;25.17;;;8.30;81.50;;;;;;5093698;28;20448;-71
2021/03/23 03:57:55;;;;;;;38.47;25.67;;;8.30;81.50;;;;;;5093713;28;20933;-71
2021/03/23 04:00:24;;;;;;;37.97;24.03;;;8.30;81.80;;;;;;5093421;28;20443;-71
2021/03/23 04:02:51;;;;;;;41.33;25.07;;;8.20;82.60;;;;;;5093614;28;20466;-71
2021/03/23 04:05:21;;;;;;;37.47;24.60;;;8.20;83.40;;;;;;5093381;28;20444;-70
2021/03/23 04:07:47;;;;;;;38.67;25.90;;;8.10;83.70;;;;;;5093080;28;20432;-71
2021/03/23 04:10:15;;;;;;;44.00;24.53;;;8.10;84.30;;;;;;5093700;28;20443;-70
2021/03/23 04:12:41;;;;;;;36.70;25.23;;;8.00;84.20;;;;;;5093735;28;20480;-70
2021/03/23 04:15:09;;;;;;;39.00;25.10;;;8.00;84.20;;;;;;5096018;28;20443;-70
2021/03/23 04:17:36;;;;;;;30.37;23.83;;;7.90;84.20;;;;;;5097308;28;20776;-71
2021/03/23 04:20:03;;;;;;;41.77;26.30;;;7.90;84.40;;;;;;5097437;28;20489;-71
2021/03/23 04:22:30;;;;;;;42.87;26.07;;;7.90;84.40;;;;;;5097929;28;20459;-71
2021/03/23 04:24:56;;;;;;;35.57;25.97;;;7.90;84.40;;;;;;5097493;28;20812;-71
2021/03/23 04:27:22;;;;;;;43.30;26.40;;;7.90;84.30;;;;;;5097105;28;20444;-70
2021/03/23 04:29:48;;;;;;;36.13;24.93;;;7.90;84.40;;;;;;5096518;28;20473;-70
2021/03/23 04:32:14;;;;;;;35.20;26.10;;;7.90;84.40;;;;;;5097097;28;20858;-70
2021/03/23 04:34:40;;;;;;;43.13;24.83;;;7.90;84.50;;;;;;5097107;28;20448;-71
2021/03/23 04:37:07;;;;;;;34.47;24.87;;;8.00;84.30;;;;;;5097135;28;20447;-70
2021/03/23 04:39:34;;;;;;;30.40;22.50;;;7.90;84.10;;;;;;5097204;28;20923;-71
2021/03/23 04:42:00;;;;;;;35.50;25.97;;;8.00;84.30;;;;;;5097483;28;20545;-71
2021/03/23 04:44:26;;;;;;;36.10;24.30;;;8.00;84.00;;;;;;5096317;28;20941;-71
2021/03/23 04:46:53;;;;;;;36.23;25.33;;;8.10;83.80;;;;;;5096451;28;20446;-71
2021/03/23 04:49:19;;;;;;;37.37;22.93;;;8.10;83.50;;;;;;5096519;28;20491;-71
2021/03/23 04:51:45;;;;;;;31.80;23.43;;;8.10;83.20;;;;;;5095375;28;20867;-71
2021/03/23 04:54:11;;;;;;;36.50;25.33;;;8.20;83.20;;;;;;5095834;28;20451;-71
2021/03/23 04:56:40;;;;;;;38.43;24.80;;;8.20;83.30;;;;;;5095785;28;20494;-71
2021/03/23 04:59:08;;;;;;;39.90;24.53;;;8.10;83.20;;;;;;5095456;28;21027;-71
2021/03/23 05:01:35;;;;;;;37.63;25.10;;;8.20;83.40;;;;;;5095616;28;20515;-71
2021/03/23 05:04:05;;;;;;;46.30;26.80;;;8.20;83.40;;;;;;5095321;28;20922;-71
2021/03/23 05:06:32;;;;;;;37.50;26.57;;;8.20;83.40;;;;;;5095278;28;20553;-71
2021/03/23 05:08:58;;;;;;;40.23;27.70;;;8.10;83.50;;;;;;5095563;28;20450;-71
2021/03/23 05:11:27;;;;;;;39.87;27.60;;;8.10;83.80;;;;;;5095876;28;20464;-71
2021/03/23 05:13:54;;;;;;;40.00;27.93;;;8.10;84.10;;;;;;5095594;28;20937;-71
2021/03/23 05:16:21;;;;;;;33.37;24.83;;;8.00;84.10;;;;;;5095088;28;20444;-71
2021/03/23 05:18:47;;;;;;;42.67;27.63;;;8.00;84.50;;;;;;5095296;28;20440;-71
2021/03/23 05:21:14;;;;;;;41.90;26.80;;;7.90;84.80;;;;;;5095266;28;20494;-70
2021/03/23 05:23:40;;;;;;;39.93;26.70;;;7.90;85.00;;;;;;5095283;28;20448;-70
2021/03/23 05:26:07;;;;;;;41.03;29.03;;;7.80;85.20;;;;;;5093976;28;20440;-70
2021/03/23 05:28:34;;;;;;;42.87;26.33;;;7.70;85.30;;;;;;5095166;28;20440;-70
2021/03/23 05:31:01;;;;;;;46.73;26.50;;;7.70;85.40;;;;;;5095010;28;20455;-71
2021/03/23 05:33:28;;;;;;;41.57;27.77;;;7.70;85.70;;;;;;5095002;28;20502;-71
2021/03/23 05:35:58;;;;;;;43.10;28.70;;;7.80;85.80;;;;;;5094746;28;20841;-71
2021/03/23 05:38:25;;;;;;;44.03;28.63;;;7.80;85.60;;;;;;5094935;28;20451;-71
2021/03/23 05:40:57;;;;;;;39.83;26.07;;;7.80;85.60;;;;;;5094818;28;20444;-70
2021/03/23 05:43:48;;;;;;;42.73;27.97;;;7.80;85.30;;;;;;5094871;28;20424;-70
2021/03/23 05:46:27;;;;;;;40.67;28.70;;;7.90;85.10;;;;;;5094740;28;20428;-70
2021/03/23 05:49:00;;;;;;;36.10;25.90;;;7.90;84.80;;;;;;5094478;28;20423;-70
2021/03/23 05:51:32;;;;;;;41.27;26.13;;;7.90;84.50;;;;;;5094610;28;20478;-71
2021/03/23 05:54:03;;;;;;;36.40;25.87;;;8.00;84.60;;;;;;5094324;28;20428;-71
2021/03/23 05:56:33;;;;;;;38.40;25.60;;;8.00;84.30;;;;;;5094679;28;20424;-71
2021/03/23 05:59:07;;;;;;;46.07;25.30;;;8.00;83.90;;;;;;5094588;28;20444;-71
2021/03/23 06:01:42;;;;;;;38.60;27.40;;;8.00;83.60;;;;;;5094473;28;20478;-71
2021/03/23 06:04:24;;;;;;;38.83;25.83;;;8.00;83.60;;;;;;5094504;28;20446;-71
2021/03/23 06:06:57;;;;;;;41.27;26.80;;;8.00;83.30;;;;;;5093963;28;20455;-71
2021/03/23 06:09:29;;;;;;;40.03;26.93;;;8.00;82.90;;;;;;5094442;28;20518;-70
2021/03/23 06:12:05;;;;;;;32.93;23.30;;;8.10;82.90;;;;;;5094156;28;20486;-71
2021/03/23 06:14:39;;;;;;;36.80;26.60;;;8.10;82.70;;;;;;5094361;28;20794;-71
2021/03/23 06:17:14;;;;;;;39.37;25.57;;;8.10;82.60;;;;;;5094256;28;20477;-70
2021/03/23 06:19:45;;;;;;;41.53;27.20;;;8.10;82.20;;;;;;5094252;28;20432;-70
2021/03/23 06:22:22;;;;;;;38.93;27.40;;;8.10;81.90;;;;;;5094062;28;20457;-70
2021/03/23 06:24:59;;;;;;;34.07;24.10;;;8.10;81.80;;;;;;5094134;28;20831;-70
2021/03/23 06:27:33;;;;;;;39.27;24.20;;;8.10;81.80;;;;;;5094112;28;20500;-70
2021/03/23 06:30:20;;;;;;;38.07;26.60;;;8.10;81.90;;;;;;5094064;28;20431;-71
2021/03/23 06:32:49;;;;;;;33.33;24.70;;;8.20;82.00;;;;;;5093827;28;20563;-70
2021/03/23 06:35:18;;;;;;;38.27;25.23;;;8.20;81.90;;;;;;5093966;28;20452;-70
2021/03/23 06:37:45;;;;;;;39.13;25.17;;;8.30;81.80;;;;;;5093579;28;20435;-70
2021/03/23 06:40:14;;;;;;;38.57;25.50;;;8.30;81.40;;;;;;5093878;28;20450;-70
2021/03/23 06:42:43;;;;;;;35.53;24.13;;;8.40;81.20;;;;;;5094061;28;20458;-70
2021/03/23 06:45:25;;;;;;;32.50;24.47;;;8.40;81.10;;;;;;5093801;28;20466;-70
2021/03/23 06:47:52;;;;;;;39.03;23.77;;;8.50;81.00;;;;;;5093845;28;20454;-70
2021/03/23 06:50:43;;;;;;;32.43;23.30;;;8.50;80.70;;;;;;5093760;28;20514;-70
2021/03/23 06:53:13;;;;;;;36.50;23.70;;;8.50;80.10;;;;;;5077976;28;20852;-70
2021/03/23 06:55:40;;;;;;;37.33;25.10;;;8.50;79.90;;;;;;5093734;28;20799;-70
2021/03/23 06:58:23;;;;;;;37.37;24.50;;;8.60;80.20;;;;;;5093651;28;20596;-70
2021/03/23 07:01:10;;;;;;;39.80;23.90;;;8.60;80.30;;;;;;5093830;28;20427;-70
2021/03/23 07:03:38;;;;;;;31.50;22.83;;;8.60;79.80;;;;;;5093609;28;20420;-70
2021/03/23 07:06:18;;;;;;;36.03;23.77;;;8.50;80.00;;;;;;5093428;28;20471;-71
2021/03/23 07:08:44;;;;;;;31.70;22.67;;;8.50;79.90;;;;;;5093794;28;20428;-70
2021/03/23 07:11:10;;;;;;;40.03;25.17;;;8.50;79.90;;;;;;5093461;28;20460;-70
2021/03/23 07:13:41;;;;;;;38.07;24.07;;;8.60;80.20;;;;;;5093459;28;20475;-70
2021/03/23 07:16:27;;;;;;;32.83;22.17;;;8.60;79.70;;;;;;5093480;28;20435;-70
2021/03/23 07:19:08;;;;;;;34.10;23.27;;;8.70;79.50;;;;;;5093425;28;20530;-70
2021/03/23 07:21:43;;;;;;;38.83;23.63;;;8.80;79.40;;;;;;5093677;28;20467;-70
2021/03/23 07:24:13;;;;;;;37.77;23.13;;;8.80;78.70;;;;;;5093129;28;20921;-70
2021/03/23 07:26:41;;;;;;;34.00;24.10;;;8.80;78.30;;;;;;5093592;28;20447;-70
2021/03/23 07:29:30;;;;;;;36.50;23.63;;;8.80;78.00;;;;;;5093065;28;20979;-69
2021/03/23 07:32:14;;;;;;;32.23;23.33;;;8.90;77.80;;;;;;5093175;28;20483;-70
2021/03/23 07:34:55;;;;;;;31.87;22.63;;;8.80;77.40;;;;;;5093368;28;20473;-70
2021/03/23 07:37:26;;;;;;;30.53;25.03;;;8.70;78.40;;;;;;5093267;28;20579;-70
2021/03/23 07:39:56;;;;;;;34.23;22.87;;;8.70;77.90;;;;;;5092944;28;20890;-70
2021/03/23 07:42:29;;;;;;;28.20;21.53;;;8.70;78.00;;;;;;5093222;28;20460;-70
2021/03/23 07:45:01;;;;;;;29.70;22.60;;;8.80;78.00;;;;;;5093197;28;20431;-70
2021/03/23 07:47:34;;;;;;;28.83;22.03;;;8.90;77.70;;;;;;5093180;28;20432;-70
2021/03/23 07:50:11;;;;;;;26.33;21.20;;;8.80;77.40;;;;;;5095305;28;20465;-70
2021/03/23 07:52:43;;;;;;;32.33;20.73;;;8.90;77.40;;;;;;5096899;28;20841;-70
2021/03/23 07:55:18;;;;;;;34.03;21.10;;;8.80;77.50;;;;;;5096897;28;20432;-70
2021/03/23 07:58:17;;;;;;;32.77;21.87;;;8.80;78.80;;;;;;5096983;28;20499;-70
2021/03/23 08:01:06;;;;;;;34.50;21.57;;;8.90;78.00;;;;;;5096836;28;20436;-70
2021/03/23 08:03:55;;;;;;;29.83;21.00;;;9.00;78.60;;;;;;5096832;28;20433;-70
2021/03/23 08:06:27;;;;;;;38.13;23.30;;;9.00;77.10;;;;;;5096629;28;20459;-70
2021/03/23 08:09:17;;;;;;;31.67;22.10;;;9.00;77.80;;;;;;5096773;28;20428;-70
2021/03/23 08:11:53;;;;;;;30.50;22.17;;;9.10;78.00;;;;;;5096197;28;20828;-70
2021/03/23 08:14:42;;;;;;;28.20;21.30;;;9.00;77.20;;;;;;5096378;28;20958;-70
2021/03/23 08:17:31;;;;;;;31.73;22.00;;;9.10;78.00;;;;;;5096517;28;20440;-70
2021/03/23 08:20:19;;;;;;;26.23;20.30;;;9.20;77.80;;;;;;5096765;28;20428;-70
2021/03/23 08:22:58;;;;;;;27.63;20.47;;;9.20;76.90;;;;;;5096436;28;20518;-70
2021/03/23 08:25:34;;;;;;;27.60;19.87;;;9.20;76.80;;;;;;5096467;28;20431;-70
2021/03/23 08:28:33;;;;;;;26.17;19.63;;;9.40;77.20;;;;;;5096679;28;20428;-70
2021/03/23 08:31:17;;;;;;;27.60;20.27;;;9.50;75.90;;;;;;5096170;28;20573;-70
2021/03/23 08:33:52;;;;;;;21.63;17.87;;;9.60;76.30;;;;;;5096218;28;20467;-70
2021/03/23 08:36:29;;;;;;;31.20;18.53;;;9.70;75.80;;;;;;5096162;28;20515;-70
2021/03/23 08:39:04;;;;;;;26.50;19.03;;;9.80;74.80;;;;;;5095822;28;20427;-70
2021/03/23 08:41:45;;;;;;;33.23;19.70;;;9.90;75.10;;;;;;5095732;28;20985;-69
2021/03/23 08:44:27;;;;;;;33.47;20.13;;;9.80;73.80;;;;;;5096909;28;20442;-69
2021/03/23 08:46:54;;;;;;;28.70;17.87;;;9.90;74.10;;;;;;5095999;28;20428;-69
2021/03/23 08:49:22;;;;;;;26.37;18.10;;;10.00;71.60;;;;;;5095925;28;20444;-69
2021/03/23 08:51:50;;;;;;;29.43;19.27;;;10.00;72.90;;;;;;5095397;28;20977;-70
2021/03/23 08:54:43;;;;;;;26.30;18.00;;;10.10;71.90;;;;;;5095769;28;20534;-70
2021/03/23 08:57:10;;;;;;;27.20;19.07;;;10.10;71.50;;;;;;5095780;28;20427;-69
2021/03/23 08:59:50;;;;;;;27.10;17.43;;;10.00;72.00;;;;;;5095530;28;20455;-69
2021/03/23 09:02:48;;;;;;;26.40;17.10;;;10.10;71.70;;;;;;5095627;28;20451;-69
2021/03/23 09:05:53;;;;;;;25.97;18.10;;;10.20;72.80;;;;;;5095478;28;20456;-70
2021/03/23 09:08:31;;;;;;;30.63;18.97;;;10.20;72.50;;;;;;5093240;28;20458;-70
2021/03/23 09:11:01;;;;;;;30.83;19.27;;;10.20;71.30;;;;;;5095448;28;20424;-70
2021/03/23 09:14:17;;;;;;;25.87;19.10;;;10.20;71.10;;;;;;5095539;28;20472;-70
2021/03/23 09:17:06;;;;;;;29.80;18.60;;;10.40;71.40;;;;;;5095495;28;20863;-70
2021/03/23 09:19:37;;;;;;;25.10;16.57;;;10.30;70.70;;;;;;5095358;28;20522;-69
2021/03/23 09:22:25;;;;;;;26.53;17.40;;;10.30;70.50;;;;;;5095143;28;20471;-69
2021/03/23 09:25:23;;;;;;;22.53;15.70;;;10.50;70.60;;;;;;5095255;28;20428;-70
2021/03/23 09:27:59;;;;;;;23.57;16.70;;;10.50;70.10;;;;;;5092892;28;20850;-70
2021/03/23 09:30:53;;;;;;;28.67;17.77;;;10.70;70.20;;;;;;5094823;28;20940;-70
2021/03/23 09:33:39;;;;;;;25.60;16.63;;;10.90;70.70;;;;;;5095050;28;20875;-70
2021/03/23 09:36:48;;;;;;;25.73;16.57;;;11.10;69.30;;;;;;5095024;28;20424;-70
2021/03/23 09:39:35;;;;;;;23.83;16.87;;;11.40;68.90;;;;;;5094908;28;20584;-70
2021/03/23 09:42:27;;;;;;;26.03;17.80;;;11.40;67.90;;;;;;5094839;28;20484;-70
2021/03/23 09:45:28;;;;;;;24.00;17.10;;;11.50;67.90;;;;;;5094573;28;20431;-70
2021/03/23 09:48:01;;;;;;;26.10;17.20;;;11.60;67.10;;;;;;5094855;28;20933;-70
2021/03/23 09:50:35;;;;;;;28.27;17.07;;;11.60;66.20;;;;;;5094758;28;20517;-70
2021/03/23 09:53:08;;;;;;;24.90;16.70;;;11.70;67.30;;;;;;5094289;28;20522;-70
2021/03/23 09:55:36;;;;;;;25.27;16.50;;;11.80;66.40;;;;;;5094689;28;20423;-70
2021/03/23 09:58:03;;;;;;;24.83;17.30;;;11.90;66.20;;;;;;5094243;28;20942;-70
2021/03/23 10:00:33;;;;;;;21.93;15.83;;;11.80;65.20;;;;;;5094752;28;20443;-70
2021/03/23 10:03:00;;;;;;;20.93;16.47;;;11.80;64.90;;;;;;5094498;28;20546;-70
2021/03/23 10:05:28;;;;;;;23.00;15.47;;;11.80;66.40;;;;;;5094076;28;20879;-70
2021/03/23 10:08:12;;;;;;;23.60;15.17;;;11.80;66.60;;;;;;5094212;28;20960;-70
2021/03/23 10:10:38;;;;;;;24.70;15.80;;;11.70;65.20;;;;;;5094506;28;20461;-70
2021/03/23 10:13:20;;;;;;;25.13;17.63;;;11.90;65.40;;;;;;5093618;28;20512;-70
2021/03/23 10:15:47;;;;;;;23.10;15.90;;;12.00;65.20;;;;;;5094345;28;20446;-70
2021/03/23 10:18:20;;;;;;;23.87;17.03;;;12.30;64.70;;;;;;5094285;28;20473;-70
2021/03/23 10:20:48;;;;;;;23.40;16.60;;;12.40;65.10;;;;;;5093961;28;20903;-70
2021/03/23 10:23:14;;;;;;;23.50;17.37;;;12.60;62.70;;;;;;5094657;28;20455;-70
2021/03/23 10:25:43;;;;;;;24.87;16.37;;;12.80;61.80;;;;;;5094141;28;20443;-70
2021/03/23 10:28:21;;;;;;;23.83;16.30;;;13.00;61.20;;;;;;5094398;28;20446;-70
2021/03/23 10:30:57;;;;;;;30.50;18.00;;;13.10;61.40;;;;;;5094165;28;20438;-70
2021/03/23 10:33:25;;;;;;;20.60;17.00;;;13.10;63.00;;;;;;5093755;28;21079;-70
2021/03/23 10:35:57;;;;;;;25.50;17.30;;;13.30;62.80;;;;;;5094022;28;20492;-70
2021/03/23 10:38:37;;;;;;;23.50;17.83;;;13.30;59.70;;;;;;5093778;28;20898;-70
2021/03/23 10:41:26;;;;;;;26.73;18.77;;;13.30;60.40;;;;;;5093575;28;20932;-70
2021/03/23 10:43:54;;;;;;;25.93;18.43;;;13.30;61.60;;;;;;5093922;28;20426;-70
2021/03/23 10:46:29;;;;;;;26.90;18.17;;;13.40;60.50;;;;;;5093816;28;20503;-70
2021/03/23 10:49:12;;;;;;;25.17;17.20;;;13.60;59.70;;;;;;5093771;28;20447;-70
2021/03/23 10:51:41;;;;;;;22.83;16.53;;;14.20;58.60;;;;;;5094390;28;20470;-70
2021/03/23 10:54:19;;;;;;;25.63;18.63;;;14.60;58.30;;;;;;5093766;28;20472;-71
2021/03/23 10:56:47;;;;;;;22.00;17.13;;;15.00;57.40;;;;;;5094283;28;20427;-71
2021/03/23 10:59:25;;;;;;;24.47;17.27;;;15.20;55.80;;;;;;5093700;28;20454;-69
2021/03/23 11:02:01;;;;;;;29.30;18.40;;;15.10;55.00;;;;;;5095124;28;20972;-69
2021/03/23 11:04:29;;;;;;;21.63;18.17;;;15.00;55.40;;;;;;5094410;28;20432;-70
2021/03/23 11:06:55;;;;;;;22.60;16.10;;;15.00;55.40;;;;;;5094305;28;20980;-69
2021/03/23 11:09:21;;;;;;;20.90;16.60;;;15.40;54.90;;;;;;5094493;28;20447;-69
2021/03/23 11:11:49;;;;;;;23.20;16.47;;;15.70;53.60;;;;;;5094391;28;20463;-70
2021/03/23 11:14:17;;;;;;;22.93;17.70;;;15.90;53.40;;;;;;5093769;28;20797;-70
2021/03/23 11:16:45;;;;;;;21.97;16.83;;;16.00;53.90;;;;;;5094222;28;20860;-70
2021/03/23 11:19:22;;;;;;;25.67;16.33;;;16.20;52.00;;;;;;5095299;28;20534;-70
2021/03/23 11:21:48;;;;;;;23.20;17.43;;;16.60;52.70;;;;;;5094650;28;20470;-71
2021/03/23 11:24:14;;;;;;;23.77;18.60;;;16.90;50.20;;;;;;5097817;28;20447;-70
2021/03/23 11:26:44;;;;;;;23.83;16.70;;;16.70;50.20;;;;;;5098453;28;20449;-72
2021/03/23 11:29:14;;;;;;;25.20;17.80;;;16.60;51.00;;;;;;5098752;28;20515;-75
2021/03/23 11:31:40;;;;;;;21.80;16.03;;;16.90;50.30;;;;;;5097994;28;21062;-71
2021/03/23 11:34:06;;;;;;;22.93;17.27;;;17.30;50.90;;;;;;5097772;28;20525;-71
2021/03/23 11:36:34;;;;;;;23.90;18.47;;;17.40;48.70;;;;;;5097821;28;20441;-70
2021/03/23 11:39:00;;;;;;;22.57;17.50;;;17.50;49.20;;;;;;5098535;28;20447;-70
2021/03/23 11:41:32;;;;;;;23.80;16.73;;;17.40;47.80;;;;;;5098028;28;20455;-71
2021/03/23 11:44:00;;;;;;;21.70;17.70;;;17.40;48.60;;;;;;5098073;28;20432;-71
2021/03/23 11:46:29;;;;;;;19.73;17.63;;;17.40;48.60;;;;;;5097935;28;20447;-71
2021/03/23 11:49:07;;;;;;;28.23;17.27;;;17.50;48.70;;;;;;5097764;28;20461;-71
2021/03/23 11:51:34;;;;;;;21.43;16.40;;;17.70;48.00;;;;;;5097253;28;20562;-71
2021/03/23 11:54:01;;;;;;;22.90;16.60;;;17.40;48.40;;;;;;5098232;28;20459;-71
2021/03/23 11:56:28;;;;;;;21.63;17.80;;;17.50;48.60;;;;;;5097948;28;20445;-71
2021/03/23 11:58:55;;;;;;;18.00;15.80;;;17.30;48.60;;;;;;5098197;28;20447;-72
2021/03/23 12:01:24;;;;;;;24.80;16.97;;;17.40;48.20;;;;;;5097913;28;20463;-72
2021/03/23 12:03:51;;;;;;;20.40;16.60;;;17.50;48.20;;;;;;5098266;28;20922;-72
2021/03/23 12:06:23;;;;;;;24.73;17.70;;;18.00;46.80;;;;;;5097519;28;20451;-71
2021/03/23 12:08:56;;;;;;;21.30;16.97;;;18.00;45.40;;;;;;5097630;28;20428;-71
2021/03/23 12:11:31;;;;;;;20.50;17.30;;;17.30;45.70;;;;;;5097411;28;20473;-71
2021/03/23 12:14:11;;;;;;;21.20;17.03;;;16.70;48.30;;;;;;5097554;28;20479;-71
2021/03/23 12:16:46;;;;;;;18.73;16.70;;;16.60;48.80;;;;;;5097770;28;20432;-71
2021/03/23 12:19:14;;;;;;;23.47;17.40;;;17.00;47.60;;;;;;5097324;28;20823;-72
2021/03/23 12:21:42;;;;;;;20.10;17.50;;;16.90;47.60;;;;;;5097110;28;20517;-72
2021/03/23 12:24:10;;;;;;;21.80;17.30;;;16.70;48.50;;;;;;5097309;28;20434;-72
2021/03/23 12:26:37;;;;;;;22.70;17.47;;;16.30;48.40;;;;;;5096794;28;20446;-71
2021/03/23 12:29:03;;;;;;;26.33;17.53;;;16.00;50.20;;;;;;5097089;28;20432;-72
2021/03/23 12:31:29;;;;;;;21.93;18.27;;;16.40;50.20;;;;;;5096602;28;20981;-71
2021/03/23 12:33:56;;;;;;;21.30;17.93;;;16.50;49.50;;;;;;5097424;28;20476;-71
2021/03/23 12:36:22;;;;;;;23.77;17.53;;;16.20;49.50;;;;;;5097165;28;20441;-70
2021/03/23 12:38:51;;;;;;;21.53;17.37;;;16.00;50.80;;;;;;5097494;28;20530;-71
2021/03/23 12:41:27;;;;;;;21.80;16.47;;;15.90;51.20;;;;;;5097496;28;20969;-70
2021/03/23 12:43:53;;;;;;;25.33;17.60;;;15.90;51.10;;;;;;5096558;28;20432;-70
2021/03/23 12:46:19;;;;;;;23.30;17.67;;;15.70;51.00;;;;;;5096383;28;20938;-71
2021/03/23 12:48:46;;;;;;;20.90;16.93;;;15.80;51.30;;;;;;5096646;28;20484;-71
2021/03/23 12:51:20;;;;;;;25.70;16.33;;;15.80;51.30;;;;;;5096467;28;20444;-71
2021/03/23 12:53:47;;;;;;;25.60;16.93;;;16.10;50.90;;;;;;5096410;28;20459;-71
2021/03/23 12:56:13;;;;;;;24.10;16.63;;;16.10;50.40;;;;;;5096735;28;20444;-71